sensor_id;sensor_type;location;lat;lon;timestamp;temperature;humidity
27004;DHT22;14546;47.590;19.022;2022-08-19T15:40:37;35.80;33.90
27004;DHT22;14546;47.590;19.022;2022-08-19T16:33:31;30.00;36.80
27004;DHT22;14546;47.590;19.022;2022-08-19T16:35:57;30.00;37.80
27004;DHT22;14546;47.590;19.022;2022-08-19T16:38:23;29.90;38.30
27004;DHT22;14546;47.590;19.022;2022-08-19T21:57:58;23.90;60.10
27004;DHT22;14546;47.590;19.022;2022-08-19T22:00:25;21.90;89.50
27004;DHT22;14546;47.590;19.022;2022-08-19T22:02:51;21.60;89.60
27004;DHT22;14546;47.590;19.022;2022-08-19T22:05:19;21.60;89.90
27004;DHT22;14546;47.590;19.022;2022-08-19T22:07:51;21.60;90.20
27004;DHT22;14546;47.590;19.022;2022-08-19T22:10:18;21.60;90.30
27004;DHT22;14546;47.590;19.022;2022-08-19T22:12:44;21.70;90.50
27004;DHT22;14546;47.590;19.022;2022-08-19T22:15:12;21.70;90.70
27004;DHT22;14546;47.590;19.022;2022-08-19T22:17:39;21.70;90.80
27004;DHT22;14546;47.590;19.022;2022-08-19T22:20:07;21.70;90.60
27004;DHT22;14546;47.590;19.022;2022-08-19T22:22:36;21.70;90.70
27004;DHT22;14546;47.590;19.022;2022-08-19T22:25:10;21.70;90.80
27004;DHT22;14546;47.590;19.022;2022-08-19T22:27:36;21.80;91.00
27004;DHT22;14546;47.590;19.022;2022-08-19T22:30:08;21.80;91.10
27004;DHT22;14546;47.590;19.022;2022-08-19T22:32:34;21.80;91.20
27004;DHT22;14546;47.590;19.022;2022-08-19T22:35:00;21.80;91.20
27004;DHT22;14546;47.590;19.022;2022-08-19T22:37:27;21.70;91.10
27004;DHT22;14546;47.590;19.022;2022-08-19T22:39:56;21.80;91.10
27004;DHT22;14546;47.590;19.022;2022-08-19T22:42:22;21.70;91.00
27004;DHT22;14546;47.590;19.022;2022-08-19T22:44:49;21.70;90.90
27004;DHT22;14546;47.590;19.022;2022-08-19T22:47:16;21.70;90.90
27004;DHT22;14546;47.590;19.022;2022-08-19T22:49:43;21.80;90.90
27004;DHT22;14546;47.590;19.022;2022-08-19T22:52:08;21.80;90.90
27004;DHT22;14546;47.590;19.022;2022-08-19T22:54:49;21.80;90.90
27004;DHT22;14546;47.590;19.022;2022-08-19T22:57:16;21.80;90.90
27004;DHT22;14546;47.590;19.022;2022-08-19T22:59:44;21.80;91.00
27004;DHT22;14546;47.590;19.022;2022-08-19T23:02:37;21.80;91.00
27004;DHT22;14546;47.590;19.022;2022-08-19T23:05:07;21.80;90.90
27004;DHT22;14546;47.590;19.022;2022-08-19T23:07:34;21.80;90.80
27004;DHT22;14546;47.590;19.022;2022-08-19T23:10:00;21.80;90.70
27004;DHT22;14546;47.590;19.022;2022-08-19T23:12:32;21.80;90.80
27004;DHT22;14546;47.590;19.022;2022-08-19T23:15:07;21.80;90.70
27004;DHT22;14546;47.590;19.022;2022-08-19T23:17:32;21.80;90.70
27004;DHT22;14546;47.590;19.022;2022-08-19T23:19:59;21.80;90.70
27004;DHT22;14546;47.590;19.022;2022-08-19T23:22:26;21.80;90.70
27004;DHT22;14546;47.590;19.022;2022-08-19T23:24:51;21.80;90.70
27004;DHT22;14546;47.590;19.022;2022-08-19T23:27:17;21.80;90.70
27004;DHT22;14546;47.590;19.022;2022-08-19T23:30:01;21.80;90.50
27004;DHT22;14546;47.590;19.022;2022-08-19T23:32:45;21.80;90.30
27004;DHT22;14546;47.590;19.022;2022-08-19T23:35:11;21.70;90.30
27004;DHT22;14546;47.590;19.022;2022-08-19T23:37:37;21.70;90.50
27004;DHT22;14546;47.590;19.022;2022-08-19T23:40:04;21.70;90.70
27004;DHT22;14546;47.590;19.022;2022-08-19T23:42:30;21.70;90.70
27004;DHT22;14546;47.590;19.022;2022-08-19T23:45:04;21.60;90.80
27004;DHT22;14546;47.590;19.022;2022-08-19T23:47:32;21.60;91.00
27004;DHT22;14546;47.590;19.022;2022-08-19T23:49:59;21.60;91.00
27004;DHT22;14546;47.590;19.022;2022-08-19T23:52:29;21.60;91.20
27004;DHT22;14546;47.590;19.022;2022-08-19T23:55:00;21.60;91.30
27004;DHT22;14546;47.590;19.022;2022-08-19T23:57:26;21.70;91.30
27004;DHT22;14546;47.590;19.022;2022-08-19T23:59:52;21.70;91.30
